sensor_id;sensor_type;location;lat;lon;timestamp;pressure;altitude;pressure_sealevel;temperature;humidity
9521;BME280;4798;41.574;23.734;2022-10-30T00:00:42;96089.00;;;12.25;49.36
9521;BME280;4798;41.574;23.734;2022-10-30T00:03:11;96086.06;;;12.21;49.51
9521;BME280;4798;41.574;23.734;2022-10-30T00:05:41;96088.22;;;12.29;49.22
9521;BME280;4798;41.574;23.734;2022-10-30T00:08:11;96088.63;;;11.96;51.35
9521;BME280;4798;41.574;23.734;2022-10-30T00:10:40;96082.78;;;11.94;51.09
9521;BME280;4798;41.574;23.734;2022-10-30T00:13:09;96084.06;;;11.86;51.51
9521;BME280;4798;41.574;23.734;2022-10-30T00:15:39;96080.13;;;11.99;51.98
9521;BME280;4798;41.574;23.734;2022-10-30T00:18:13;96083.34;;;12.06;50.50
9521;BME280;4798;41.574;23.734;2022-10-30T00:20:41;96074.84;;;12.04;51.16
9521;BME280;4798;41.574;23.734;2022-10-30T00:23:10;96078.63;;;12.23;50.65
9521;BME280;4798;41.574;23.734;2022-10-30T00:25:38;96072.88;;;11.84;50.92
9521;BME280;4798;41.574;23.734;2022-10-30T00:28:06;96075.13;;;11.24;52.31
9521;BME280;4798;41.574;23.734;2022-10-30T00:30:36;96076.69;;;11.62;51.11
9521;BME280;4798;41.574;23.734;2022-10-30T00:33:05;96067.09;;;11.97;50.67
9521;BME280;4798;41.574;23.734;2022-10-30T00:35:34;96069.03;;;12.22;49.55
9521;BME280;4798;41.574;23.734;2022-10-30T00:38:02;96062.34;;;12.09;50.13
9521;BME280;4798;41.574;23.734;2022-10-30T00:40:31;96071.03;;;11.90;50.68
9521;BME280;4798;41.574;23.734;2022-10-30T00:42:59;96060.22;;;11.55;51.61
9521;BME280;4798;41.574;23.734;2022-10-30T00:45:27;96065.44;;;11.44;51.76
9521;BME280;4798;41.574;23.734;2022-10-30T00:47:58;96066.06;;;11.57;51.84
9521;BME280;4798;41.574;23.734;2022-10-30T00:50:32;96055.34;;;11.83;51.59
9521;BME280;4798;41.574;23.734;2022-10-30T00:53:05;96070.25;;;11.89;51.29
9521;BME280;4798;41.574;23.734;2022-10-30T00:55:37;96057.22;;;11.88;50.66
9521;BME280;4798;41.574;23.734;2022-10-30T00:58:10;96046.59;;;11.83;50.82
9521;BME280;4798;41.574;23.734;2022-10-30T01:00:41;96036.41;;;11.70;50.36
9521;BME280;4798;41.574;23.734;2022-10-30T01:03:10;96053.16;;;11.70;50.59
9521;BME280;4798;41.574;23.734;2022-10-30T01:05:42;96048.91;;;11.69;50.97
9521;BME280;4798;41.574;23.734;2022-10-30T01:08:13;96049.53;;;11.44;52.75
9521;BME280;4798;41.574;23.734;2022-10-30T01:10:42;96049.06;;;11.53;53.28
9521;BME280;4798;41.574;23.734;2022-10-30T01:13:11;96035.25;;;11.56;52.44
9521;BME280;4798;41.574;23.734;2022-10-30T01:15:46;96047.50;;;11.62;51.70
9521;BME280;4798;41.574;23.734;2022-10-30T01:18:28;96045.78;;;11.35;52.18
9521;BME280;4798;41.574;23.734;2022-10-30T01:21:18;96043.34;;;11.34;52.68
9521;BME280;4798;41.574;23.734;2022-10-30T01:23:59;96041.53;;;11.39;52.41
9521;BME280;4798;41.574;23.734;2022-10-30T01:26:37;96042.06;;;11.41;52.51
9521;BME280;4798;41.574;23.734;2022-10-30T01:29:25;96044.91;;;11.25;52.72
9521;BME280;4798;41.574;23.734;2022-10-30T01:32:06;96049.34;;;10.56;55.54
9521;BME280;4798;41.574;23.734;2022-10-30T01:34:43;96045.03;;;9.58;58.22
9521;BME280;4798;41.574;23.734;2022-10-30T01:37:19;96044.66;;;9.49;59.20
9521;BME280;4798;41.574;23.734;2022-10-30T01:39:49;96039.59;;;9.10;60.69
9521;BME280;4798;41.574;23.734;2022-10-30T01:42:52;96044.16;;;8.64;63.67
9521;BME280;4798;41.574;23.734;2022-10-30T01:45:28;96045.34;;;8.57;64.69
9521;BME280;4798;41.574;23.734;2022-10-30T01:48:23;96038.56;;;8.77;65.04
9521;BME280;4798;41.574;23.734;2022-10-30T01:50:56;96040.78;;;8.85;64.52
9521;BME280;4798;41.574;23.734;2022-10-30T01:53:41;96038.28;;;9.29;62.95
9521;BME280;4798;41.574;23.734;2022-10-30T01:56:19;96034.75;;;9.40;62.33
9521;BME280;4798;41.574;23.734;2022-10-30T01:58:58;96033.53;;;9.69;61.03
9521;BME280;4798;41.574;23.734;2022-10-30T02:01:29;96040.34;;;9.43;61.98
9521;BME280;4798;41.574;23.734;2022-10-30T02:04:01;96041.13;;;9.61;61.21
9521;BME280;4798;41.574;23.734;2022-10-30T02:06:34;96041.84;;;9.78;60.61
9521;BME280;4798;41.574;23.734;2022-10-30T02:09:05;96039.81;;;9.85;59.96
9521;BME280;4798;41.574;23.734;2022-10-30T02:11:34;96014.50;;;10.15;58.40
9521;BME280;4798;41.574;23.734;2022-10-30T02:14:05;96028.69;;;9.61;60.79
9521;BME280;4798;41.574;23.734;2022-10-30T02:16:36;96023.00;;;10.17;58.60
9521;BME280;4798;41.574;23.734;2022-10-30T02:19:05;96021.44;;;10.00;59.40
9521;BME280;4798;41.574;23.734;2022-10-30T02:21:35;96024.47;;;9.87;59.03
9521;BME280;4798;41.574;23.734;2022-10-30T02:24:04;96026.28;;;9.81;58.74
9521;BME280;4798;41.574;23.734;2022-10-30T02:26:33;96025.06;;;9.89;59.01
9521;BME280;4798;41.574;23.734;2022-10-30T02:29:01;96030.88;;;9.69;59.83
9521;BME280;4798;41.574;23.734;2022-10-30T02:31:29;96027.63;;;9.84;59.27
9521;BME280;4798;41.574;23.734;2022-10-30T02:33:58;96022.56;;;10.04;57.89
9521;BME280;4798;41.574;23.734;2022-10-30T02:36:26;96032.91;;;10.27;57.30
9521;BME280;4798;41.574;23.734;2022-10-30T02:38:56;96034.19;;;10.25;57.65
9521;BME280;4798;41.574;23.734;2022-10-30T02:41:24;96034.50;;;10.28;58.16
9521;BME280;4798;41.574;23.734;2022-10-30T02:43:52;96006.81;;;10.14;57.78
9521;BME280;4798;41.574;23.734;2022-10-30T02:46:21;96037.81;;;10.13;58.95
9521;BME280;4798;41.574;23.734;2022-10-30T02:48:49;96027.19;;;8.93;61.92
9521;BME280;4798;41.574;23.734;2022-10-30T02:51:17;96035.81;;;9.61;61.46
9521;BME280;4798;41.574;23.734;2022-10-30T02:53:46;96028.50;;;9.68;60.55
9521;BME280;4798;41.574;23.734;2022-10-30T02:56:16;96030.16;;;9.95;58.94
9521;BME280;4798;41.574;23.734;2022-10-30T02:58:44;96027.41;;;10.34;57.66
9521;BME280;4798;41.574;23.734;2022-10-30T03:01:14;96005.84;;;10.25;57.57
9521;BME280;4798;41.574;23.734;2022-10-30T03:03:43;96037.34;;;10.48;57.10
9521;BME280;4798;41.574;23.734;2022-10-30T03:06:13;96028.16;;;10.56;56.26
9521;BME280;4798;41.574;23.734;2022-10-30T03:08:43;95998.81;;;10.36;56.82
9521;BME280;4798;41.574;23.734;2022-10-30T03:11:13;96027.16;;;10.35;56.80
9521;BME280;4798;41.574;23.734;2022-10-30T03:13:45;96015.25;;;10.38;56.19
9521;BME280;4798;41.574;23.734;2022-10-30T03:16:15;96016.50;;;10.57;56.32
9521;BME280;4798;41.574;23.734;2022-10-30T03:18:43;96015.00;;;10.66;56.25
9521;BME280;4798;41.574;23.734;2022-10-30T03:21:13;96018.56;;;10.50;56.03
9521;BME280;4798;41.574;23.734;2022-10-30T03:23:41;96017.91;;;10.38;56.79
9521;BME280;4798;41.574;23.734;2022-10-30T03:26:10;96016.41;;;10.47;56.25
9521;BME280;4798;41.574;23.734;2022-10-30T03:28:38;96021.41;;;10.43;56.40
9521;BME280;4798;41.574;23.734;2022-10-30T03:31:10;96018.63;;;10.55;56.56
9521;BME280;4798;41.574;23.734;2022-10-30T03:33:39;96011.63;;;10.44;56.46
9521;BME280;4798;41.574;23.734;2022-10-30T03:36:09;96019.25;;;9.92;58.06
9521;BME280;4798;41.574;23.734;2022-10-30T03:38:38;96014.75;;;9.92;57.79
9521;BME280;4798;41.574;23.734;2022-10-30T03:41:06;96016.53;;;10.08;57.78
9521;BME280;4798;41.574;23.734;2022-10-30T03:43:34;96023.81;;;9.96;58.14
9521;BME280;4798;41.574;23.734;2022-10-30T03:46:03;96025.78;;;10.06;58.22
9521;BME280;4798;41.574;23.734;2022-10-30T03:48:33;96016.63;;;10.13;57.70
9521;BME280;4798;41.574;23.734;2022-10-30T03:51:02;96016.50;;;10.30;57.09
9521;BME280;4798;41.574;23.734;2022-10-30T03:53:30;96009.47;;;10.14;56.15
9521;BME280;4798;41.574;23.734;2022-10-30T03:55:59;96026.88;;;10.32;56.57
9521;BME280;4798;41.574;23.734;2022-10-30T03:58:29;96022.50;;;10.20;56.51
9521;BME280;4798;41.574;23.734;2022-10-30T04:01:00;95926.00;;;9.63;56.80
9521;BME280;4798;41.574;23.734;2022-10-30T04:03:28;96023.31;;;10.21;56.52
9521;BME280;4798;41.574;23.734;2022-10-30T04:05:58;96013.22;;;10.18;57.18
9521;BME280;4798;41.574;23.734;2022-10-30T04:08:26;96020.91;;;10.19;57.10
9521;BME280;4798;41.574;23.734;2022-10-30T04:10:55;96024.47;;;10.30;56.94
9521;BME280;4798;41.574;23.734;2022-10-30T04:13:23;96017.31;;;10.31;56.67
9521;BME280;4798;41.574;23.734;2022-10-30T04:15:52;96015.81;;;10.40;56.07
9521;BME280;4798;41.574;23.734;2022-10-30T04:18:24;96025.81;;;10.33;55.70
9521;BME280;4798;41.574;23.734;2022-10-30T04:20:53;95963.81;;;9.58;58.29
9521;BME280;4798;41.574;23.734;2022-10-30T04:23:22;96027.94;;;9.87;58.11
9521;BME280;4798;41.574;23.734;2022-10-30T04:25:51;96015.19;;;10.06;57.44
9521;BME280;4798;41.574;23.734;2022-10-30T04:28:19;96019.50;;;9.69;58.62
9521;BME280;4798;41.574;23.734;2022-10-30T04:30:49;96016.38;;;9.93;58.79
9521;BME280;4798;41.574;23.734;2022-10-30T04:33:17;96016.34;;;9.50;58.77
9521;BME280;4798;41.574;23.734;2022-10-30T04:35:45;96017.19;;;8.79;60.77
9521;BME280;4798;41.574;23.734;2022-10-30T04:38:15;96017.75;;;8.64;61.72
9521;BME280;4798;41.574;23.734;2022-10-30T04:40:46;96021.47;;;8.07;63.45
9521;BME280;4798;41.574;23.734;2022-10-30T04:43:14;96025.63;;;8.31;63.71
9521;BME280;4798;41.574;23.734;2022-10-30T04:45:42;96025.56;;;8.14;63.84
9521;BME280;4798;41.574;23.734;2022-10-30T04:48:12;96026.72;;;8.35;63.04
9521;BME280;4798;41.574;23.734;2022-10-30T04:50:41;96023.03;;;8.64;62.13
9521;BME280;4798;41.574;23.734;2022-10-30T04:53:12;96036.03;;;8.38;63.26
9521;BME280;4798;41.574;23.734;2022-10-30T04:55:41;96015.97;;;8.53;62.62
9521;BME280;4798;41.574;23.734;2022-10-30T04:58:11;96034.81;;;8.28;63.42
9521;BME280;4798;41.574;23.734;2022-10-30T05:00:40;96041.22;;;8.32;63.28
9521;BME280;4798;41.574;23.734;2022-10-30T05:03:16;96021.72;;;8.50;62.32
9521;BME280;4798;41.574;23.734;2022-10-30T05:05:45;95894.25;;;7.37;62.76
9521;BME280;4798;41.574;23.734;2022-10-30T05:08:14;96021.38;;;8.30;63.04
9521;BME280;4798;41.574;23.734;2022-10-30T05:10:42;96029.88;;;8.49;62.91
9521;BME280;4798;41.574;23.734;2022-10-30T05:13:12;96030.81;;;8.43;63.40
9521;BME280;4798;41.574;23.734;2022-10-30T05:15:40;96038.53;;;8.44;63.40
9521;BME280;4798;41.574;23.734;2022-10-30T05:18:09;96030.47;;;7.83;65.71
9521;BME280;4798;41.574;23.734;2022-10-30T05:20:37;96023.00;;;8.19;65.08
9521;BME280;4798;41.574;23.734;2022-10-30T05:23:05;96002.75;;;8.25;65.04
9521;BME280;4798;41.574;23.734;2022-10-30T05:25:34;96029.97;;;8.37;64.60
9521;BME280;4798;41.574;23.734;2022-10-30T05:28:04;96030.25;;;8.12;65.95
9521;BME280;4798;41.574;23.734;2022-10-30T05:30:34;96032.44;;;8.60;64.15
9521;BME280;4798;41.574;23.734;2022-10-30T05:33:05;96037.44;;;9.07;62.39
9521;BME280;4798;41.574;23.734;2022-10-30T05:35:34;96041.13;;;9.44;61.30
9521;BME280;4798;41.574;23.734;2022-10-30T05:38:05;96044.63;;;9.66;60.40
9521;BME280;4798;41.574;23.734;2022-10-30T05:40:34;96046.22;;;9.89;59.59
9521;BME280;4798;41.574;23.734;2022-10-30T05:43:02;96043.91;;;10.14;58.74
9521;BME280;4798;41.574;23.734;2022-10-30T05:45:31;96047.09;;;10.43;57.59
9521;BME280;4798;41.574;23.734;2022-10-30T05:48:02;96052.09;;;10.93;56.23
9521;BME280;4798;41.574;23.734;2022-10-30T05:50:31;96044.34;;;11.23;55.84
9521;BME280;4798;41.574;23.734;2022-10-30T05:53:00;96018.72;;;11.43;55.35
9521;BME280;4798;41.574;23.734;2022-10-30T05:55:29;96035.22;;;11.45;54.72
9521;BME280;4798;41.574;23.734;2022-10-30T05:57:59;96028.13;;;11.61;55.36
9521;BME280;4798;41.574;23.734;2022-10-30T06:00:29;96024.69;;;11.66;54.89
9521;BME280;4798;41.574;23.734;2022-10-30T06:03:00;96022.50;;;12.09;53.94
9521;BME280;4798;41.574;23.734;2022-10-30T06:05:30;96021.50;;;12.26;53.36
9521;BME280;4798;41.574;23.734;2022-10-30T06:07:59;96023.94;;;12.52;52.52
9521;BME280;4798;41.574;23.734;2022-10-30T06:10:28;96024.78;;;13.23;52.06
9521;BME280;4798;41.574;23.734;2022-10-30T06:12:58;96024.50;;;13.05;51.04
9521;BME280;4798;41.574;23.734;2022-10-30T06:15:28;95998.97;;;12.84;50.92
9521;BME280;4798;41.574;23.734;2022-10-30T06:17:56;96019.19;;;13.20;50.59
9521;BME280;4798;41.574;23.734;2022-10-30T06:20:28;95995.81;;;13.96;49.62
9521;BME280;4798;41.574;23.734;2022-10-30T06:22:58;96029.34;;;14.07;48.74
9521;BME280;4798;41.574;23.734;2022-10-30T06:25:27;96022.25;;;14.46;48.35
9521;BME280;4798;41.574;23.734;2022-10-30T06:27:57;96024.69;;;14.38;48.48
9521;BME280;4798;41.574;23.734;2022-10-30T06:30:27;96022.69;;;14.97;47.65
9521;BME280;4798;41.574;23.734;2022-10-30T06:32:56;96017.44;;;14.87;47.59
9521;BME280;4798;41.574;23.734;2022-10-30T06:35:27;96022.53;;;15.41;46.79
9521;BME280;4798;41.574;23.734;2022-10-30T06:37:56;96015.50;;;15.55;46.02
9521;BME280;4798;41.574;23.734;2022-10-30T06:40:26;96026.63;;;15.05;47.48
9521;BME280;4798;41.574;23.734;2022-10-30T06:42:56;95993.19;;;15.12;46.44
9521;BME280;4798;41.574;23.734;2022-10-30T06:45:25;96008.56;;;15.78;45.76
9521;BME280;4798;41.574;23.734;2022-10-30T06:47:53;96007.41;;;16.08;44.92
9521;BME280;4798;41.574;23.734;2022-10-30T06:50:22;96010.91;;;16.45;44.13
9521;BME280;4798;41.574;23.734;2022-10-30T06:52:52;96009.66;;;15.77;45.58
9521;BME280;4798;41.574;23.734;2022-10-30T06:55:21;95989.47;;;16.69;43.91
9521;BME280;4798;41.574;23.734;2022-10-30T06:57:53;96004.81;;;17.14;42.66
9521;BME280;4798;41.574;23.734;2022-10-30T07:00:22;96005.81;;;17.64;42.74
9521;BME280;4798;41.574;23.734;2022-10-30T07:02:56;96003.94;;;17.65;42.19
9521;BME280;4798;41.574;23.734;2022-10-30T07:05:25;96004.06;;;17.41;42.37
9521;BME280;4798;41.574;23.734;2022-10-30T07:07:56;95998.63;;;18.28;41.83
9521;BME280;4798;41.574;23.734;2022-10-30T07:10:27;96004.50;;;18.79;40.79
9521;BME280;4798;41.574;23.734;2022-10-30T07:12:56;95977.00;;;18.11;40.85
9521;BME280;4798;41.574;23.734;2022-10-30T07:15:26;96000.16;;;17.93;41.52
9521;BME280;4798;41.574;23.734;2022-10-30T07:17:55;95980.09;;;18.89;40.68
9521;BME280;4798;41.574;23.734;2022-10-30T07:20:26;95987.34;;;18.67;40.12
9521;BME280;4798;41.574;23.734;2022-10-30T07:22:57;95982.53;;;19.30;39.50
9521;BME280;4798;41.574;23.734;2022-10-30T07:25:25;95978.25;;;19.43;39.45
9521;BME280;4798;41.574;23.734;2022-10-30T07:27:54;95984.53;;;18.94;39.88
9521;BME280;4798;41.574;23.734;2022-10-30T07:30:25;95984.97;;;19.62;38.64
9521;BME280;4798;41.574;23.734;2022-10-30T07:32:58;95936.38;;;19.59;38.84
9521;BME280;4798;41.574;23.734;2022-10-30T07:35:27;95977.16;;;20.57;37.36
9521;BME280;4798;41.574;23.734;2022-10-30T07:38:00;95981.53;;;20.18;38.29
9521;BME280;4798;41.574;23.734;2022-10-30T07:40:29;95965.41;;;20.96;36.79
9521;BME280;4798;41.574;23.734;2022-10-30T07:42:57;95957.13;;;22.60;38.58
9521;BME280;4798;41.574;23.734;2022-10-30T07:45:27;95961.78;;;21.72;35.37
9521;BME280;4798;41.574;23.734;2022-10-30T07:47:55;95964.56;;;21.93;35.26
9521;BME280;4798;41.574;23.734;2022-10-30T07:50:24;95954.41;;;21.90;36.15
9521;BME280;4798;41.574;23.734;2022-10-30T07:52:53;95954.78;;;22.09;34.99
9521;BME280;4798;41.574;23.734;2022-10-30T07:55:23;95953.31;;;21.82;34.32
9521;BME280;4798;41.574;23.734;2022-10-30T07:57:51;95938.94;;;21.61;35.25
9521;BME280;4798;41.574;23.734;2022-10-30T08:00:19;95930.47;;;22.59;34.77
9521;BME280;4798;41.574;23.734;2022-10-30T08:02:48;95942.50;;;22.41;34.57
9521;BME280;4798;41.574;23.734;2022-10-30T08:05:17;95931.66;;;21.99;34.16
9521;BME280;4798;41.574;23.734;2022-10-30T08:07:48;95942.88;;;22.10;33.73
9521;BME280;4798;41.574;23.734;2022-10-30T08:10:17;95944.53;;;21.56;33.74
9521;BME280;4798;41.574;23.734;2022-10-30T08:12:46;95937.25;;;22.65;33.88
9521;BME280;4798;41.574;23.734;2022-10-30T08:15:15;95937.25;;;22.86;33.96
9521;BME280;4798;41.574;23.734;2022-10-30T08:17:43;95942.78;;;23.22;33.57
9521;BME280;4798;41.574;23.734;2022-10-30T08:20:13;95940.88;;;23.55;31.83
9521;BME280;4798;41.574;23.734;2022-10-30T08:22:46;95945.34;;;23.63;31.64
9521;BME280;4798;41.574;23.734;2022-10-30T08:25:16;95936.00;;;23.61;32.32
9521;BME280;4798;41.574;23.734;2022-10-30T08:27:54;95927.03;;;24.69;31.34
9521;BME280;4798;41.574;23.734;2022-10-30T08:30:23;95919.38;;;24.47;31.76
9521;BME280;4798;41.574;23.734;2022-10-30T08:32:55;95922.38;;;24.06;32.03
9521;BME280;4798;41.574;23.734;2022-10-30T08:35:25;95913.75;;;24.92;30.91
9521;BME280;4798;41.574;23.734;2022-10-30T08:37:54;95910.63;;;25.96;30.37
9521;BME280;4798;41.574;23.734;2022-10-30T08:40:23;95903.06;;;26.05;29.87
9521;BME280;4798;41.574;23.734;2022-10-30T08:42:54;95910.22;;;26.28;29.41
9521;BME280;4798;41.574;23.734;2022-10-30T08:45:24;95861.88;;;25.09;30.50
9521;BME280;4798;41.574;23.734;2022-10-30T08:47:57;95911.16;;;25.85;29.72
9521;BME280;4798;41.574;23.734;2022-10-30T08:50:27;95907.44;;;25.78;29.78
9521;BME280;4798;41.574;23.734;2022-10-30T08:52:59;95894.41;;;27.30;29.70
9521;BME280;4798;41.574;23.734;2022-10-30T08:55:28;95889.81;;;28.87;26.45
9521;BME280;4798;41.574;23.734;2022-10-30T08:57:58;95890.34;;;27.20;28.85
9521;BME280;4798;41.574;23.734;2022-10-30T09:00:27;95875.63;;;27.66;27.72
9521;BME280;4798;41.574;23.734;2022-10-30T09:02:55;95885.13;;;27.12;29.34
9521;BME280;4798;41.574;23.734;2022-10-30T09:05:24;95878.69;;;27.00;28.38
9521;BME280;4798;41.574;23.734;2022-10-30T09:07:55;95861.78;;;27.79;27.75
9521;BME280;4798;41.574;23.734;2022-10-30T09:10:23;95864.16;;;28.03;26.65
9521;BME280;4798;41.574;23.734;2022-10-30T09:12:53;95847.72;;;27.50;26.55
9521;BME280;4798;41.574;23.734;2022-10-30T09:15:24;95826.81;;;27.35;26.52
9521;BME280;4798;41.574;23.734;2022-10-30T09:17:56;95863.09;;;27.62;26.96
9521;BME280;4798;41.574;23.734;2022-10-30T09:20:26;95861.72;;;27.98;26.27
9521;BME280;4798;41.574;23.734;2022-10-30T09:22:54;95831.91;;;28.38;26.42
9521;BME280;4798;41.574;23.734;2022-10-30T09:25:25;95847.69;;;28.85;25.67
9521;BME280;4798;41.574;23.734;2022-10-30T09:27:53;95838.81;;;29.28;24.56
9521;BME280;4798;41.574;23.734;2022-10-30T09:30:24;95839.03;;;30.83;24.06
9521;BME280;4798;41.574;23.734;2022-10-30T09:32:55;95833.13;;;30.74;23.26
9521;BME280;4798;41.574;23.734;2022-10-30T09:35:25;95804.75;;;29.63;24.22
9521;BME280;4798;41.574;23.734;2022-10-30T09:37:53;95819.75;;;30.48;25.54
9521;BME280;4798;41.574;23.734;2022-10-30T09:40:29;95816.69;;;30.63;24.71
9521;BME280;4798;41.574;23.734;2022-10-30T09:43:08;95808.91;;;29.97;23.68
9521;BME280;4798;41.574;23.734;2022-10-30T09:46:08;95801.16;;;30.02;23.69
9521;BME280;4798;41.574;23.734;2022-10-30T09:48:56;95796.09;;;30.08;23.87
9521;BME280;4798;41.574;23.734;2022-10-30T09:51:47;95792.97;;;31.98;23.92
9521;BME280;4798;41.574;23.734;2022-10-30T09:54:27;95783.66;;;31.50;22.18
9521;BME280;4798;41.574;23.734;2022-10-30T09:57:05;95781.50;;;30.69;24.45
9521;BME280;4798;41.574;23.734;2022-10-30T09:59:46;95780.09;;;31.53;22.79
9521;BME280;4798;41.574;23.734;2022-10-30T10:02:29;95768.50;;;32.60;22.74
9521;BME280;4798;41.574;23.734;2022-10-30T10:05:04;95766.69;;;30.84;22.83
9521;BME280;4798;41.574;23.734;2022-10-30T10:07:41;95761.66;;;30.93;22.95
9521;BME280;4798;41.574;23.734;2022-10-30T10:10:17;95751.50;;;31.32;22.92
9521;BME280;4798;41.574;23.734;2022-10-30T10:12:48;95692.84;;;30.91;22.26
9521;BME280;4798;41.574;23.734;2022-10-30T10:15:32;95734.22;;;32.10;21.81
9521;BME280;4798;41.574;23.734;2022-10-30T10:18:06;95728.66;;;32.31;21.48
9521;BME280;4798;41.574;23.734;2022-10-30T10:20:41;95724.06;;;31.92;21.97
9521;BME280;4798;41.574;23.734;2022-10-30T10:23:16;95726.75;;;31.96;23.14
9521;BME280;4798;41.574;23.734;2022-10-30T10:25:51;95716.97;;;32.09;21.97
9521;BME280;4798;41.574;23.734;2022-10-30T10:28:39;95711.06;;;32.18;21.64
9521;BME280;4798;41.574;23.734;2022-10-30T10:34:34;95711.13;;;32.80;21.62
9521;BME280;4798;41.574;23.734;2022-10-30T10:37:14;95701.22;;;32.24;21.36
9521;BME280;4798;41.574;23.734;2022-10-30T10:40:00;95689.78;;;33.05;21.37
9521;BME280;4798;41.574;23.734;2022-10-30T10:42:36;95697.75;;;32.09;21.42
9521;BME280;4798;41.574;23.734;2022-10-30T10:45:20;95690.88;;;32.59;21.55
9521;BME280;4798;41.574;23.734;2022-10-30T10:48:12;95688.41;;;32.76;20.80
9521;BME280;4798;41.574;23.734;2022-10-30T10:50:48;95683.28;;;33.73;21.09
9521;BME280;4798;41.574;23.734;2022-10-30T10:53:23;95680.59;;;33.66;20.43
9521;BME280;4798;41.574;23.734;2022-10-30T10:55:56;95674.91;;;34.78;20.51
9521;BME280;4798;41.574;23.734;2022-10-30T10:58:28;95668.44;;;34.62;19.26
9521;BME280;4798;41.574;23.734;2022-10-30T11:00:58;95666.91;;;33.97;20.13
9521;BME280;4798;41.574;23.734;2022-10-30T11:03:33;95663.19;;;33.39;19.67
9521;BME280;4798;41.574;23.734;2022-10-30T11:06:19;95653.44;;;33.31;20.36
9521;BME280;4798;41.574;23.734;2022-10-30T11:08:48;95649.59;;;34.60;19.37
9521;BME280;4798;41.574;23.734;2022-10-30T11:11:19;95642.00;;;33.77;19.67
9521;BME280;4798;41.574;23.734;2022-10-30T11:13:48;95646.22;;;34.19;19.83
9521;BME280;4798;41.574;23.734;2022-10-30T11:16:23;95628.63;;;34.13;20.32
9521;BME280;4798;41.574;23.734;2022-10-30T11:18:58;95604.13;;;33.54;19.18
9521;BME280;4798;41.574;23.734;2022-10-30T11:21:31;95624.47;;;33.98;20.08
9521;BME280;4798;41.574;23.734;2022-10-30T11:24:02;95627.03;;;34.69;19.43
9521;BME280;4798;41.574;23.734;2022-10-30T11:26:32;95624.69;;;35.17;19.31
9521;BME280;4798;41.574;23.734;2022-10-30T11:29:08;95615.97;;;34.45;19.69
9521;BME280;4798;41.574;23.734;2022-10-30T11:31:40;95614.16;;;34.62;18.70
9521;BME280;4798;41.574;23.734;2022-10-30T11:34:30;95608.66;;;34.05;19.22
9521;BME280;4798;41.574;23.734;2022-10-30T11:37:00;95588.00;;;34.74;18.56
9521;BME280;4798;41.574;23.734;2022-10-30T11:39:30;95598.97;;;35.00;18.38
9521;BME280;4798;41.574;23.734;2022-10-30T11:42:03;95599.28;;;34.29;20.09
9521;BME280;4798;41.574;23.734;2022-10-30T11:44:36;95592.13;;;34.62;18.68
9521;BME280;4798;41.574;23.734;2022-10-30T11:47:09;95593.97;;;34.42;18.82
9521;BME280;4798;41.574;23.734;2022-10-30T11:49:43;95577.25;;;34.56;18.94
9521;BME280;4798;41.574;23.734;2022-10-30T11:52:16;95583.00;;;33.81;19.03
9521;BME280;4798;41.574;23.734;2022-10-30T11:54:49;95579.09;;;33.82;19.35
9521;BME280;4798;41.574;23.734;2022-10-30T11:57:22;95578.19;;;34.46;19.67
9521;BME280;4798;41.574;23.734;2022-10-30T11:59:53;95569.31;;;35.31;18.99
9521;BME280;4798;41.574;23.734;2022-10-30T12:02:39;95561.75;;;35.94;19.56
9521;BME280;4798;41.574;23.734;2022-10-30T12:05:28;95553.53;;;34.39;19.29
9521;BME280;4798;41.574;23.734;2022-10-30T12:08:17;95543.47;;;34.56;19.34
9521;BME280;4798;41.574;23.734;2022-10-30T12:10:52;95559.78;;;34.89;18.71
9521;BME280;4798;41.574;23.734;2022-10-30T12:13:22;95552.97;;;34.74;18.85
9521;BME280;4798;41.574;23.734;2022-10-30T12:16:05;95546.03;;;35.13;19.21
9521;BME280;4798;41.574;23.734;2022-10-30T12:18:33;95551.72;;;33.99;20.02
9521;BME280;4798;41.574;23.734;2022-10-30T12:21:02;95551.84;;;33.92;19.73
9521;BME280;4798;41.574;23.734;2022-10-30T12:23:32;95544.50;;;33.81;20.30
9521;BME280;4798;41.574;23.734;2022-10-30T12:26:08;95541.44;;;34.60;20.03
9521;BME280;4798;41.574;23.734;2022-10-30T12:28:38;95507.88;;;35.11;19.25
9521;BME280;4798;41.574;23.734;2022-10-30T12:31:11;95527.53;;;34.90;19.15
9521;BME280;4798;41.574;23.734;2022-10-30T12:33:45;95532.72;;;34.38;19.46
9521;BME280;4798;41.574;23.734;2022-10-30T12:36:19;95533.78;;;33.27;20.36
9521;BME280;4798;41.574;23.734;2022-10-30T12:38:54;95529.94;;;33.51;20.33
9521;BME280;4798;41.574;23.734;2022-10-30T12:41:27;95533.34;;;33.32;20.18
9521;BME280;4798;41.574;23.734;2022-10-30T12:44:01;95516.09;;;34.18;19.91
9521;BME280;4798;41.574;23.734;2022-10-30T12:46:35;95528.47;;;33.76;19.99
9521;BME280;4798;41.574;23.734;2022-10-30T12:49:14;95527.34;;;33.74;21.17
9521;BME280;4798;41.574;23.734;2022-10-30T12:51:48;95524.56;;;34.58;20.02
9521;BME280;4798;41.574;23.734;2022-10-30T12:54:24;95521.94;;;34.47;20.09
9521;BME280;4798;41.574;23.734;2022-10-30T12:57:04;95488.56;;;34.45;19.48
9521;BME280;4798;41.574;23.734;2022-10-30T12:59:39;95522.19;;;33.42;20.43
9521;BME280;4798;41.574;23.734;2022-10-30T13:02:19;95529.84;;;33.92;21.46
9521;BME280;4798;41.574;23.734;2022-10-30T13:04:55;95521.72;;;34.11;19.65
9521;BME280;4798;41.574;23.734;2022-10-30T13:07:28;95526.97;;;33.99;20.17
9521;BME280;4798;41.574;23.734;2022-10-30T13:10:12;95520.69;;;33.98;19.92
9521;BME280;4798;41.574;23.734;2022-10-30T13:12:48;95516.88;;;32.91;20.80
9521;BME280;4798;41.574;23.734;2022-10-30T13:15:25;95524.13;;;32.16;21.13
9521;BME280;4798;41.574;23.734;2022-10-30T13:17:57;95518.53;;;31.71;21.44
9521;BME280;4798;41.574;23.734;2022-10-30T13:20:28;95519.97;;;32.52;20.88
9521;BME280;4798;41.574;23.734;2022-10-30T13:23:01;95520.44;;;33.25;21.46
9521;BME280;4798;41.574;23.734;2022-10-30T13:25:39;95508.53;;;33.35;20.68
9521;BME280;4798;41.574;23.734;2022-10-30T13:28:12;95507.88;;;33.61;20.16
9521;BME280;4798;41.574;23.734;2022-10-30T13:30:55;95521.84;;;33.06;21.42
9521;BME280;4798;41.574;23.734;2022-10-30T13:33:32;95525.66;;;33.16;21.05
9521;BME280;4798;41.574;23.734;2022-10-30T13:36:07;95518.78;;;32.49;20.86
9521;BME280;4798;41.574;23.734;2022-10-30T13:38:47;95442.31;;;32.58;20.90
9521;BME280;4798;41.574;23.734;2022-10-30T13:41:25;95523.75;;;33.09;20.78